FIN4KF EFHK-EKCH
Flight info
| Callsign | FIN4KF |
|---|---|
| Flight time | 1h 27m |
| Altitude | 36000 |
| Route | NUNTO Y369 REKDO DCT KOSKA DCT TOKSI N872 ERNOV |
| Aircraft | A320/M-SDE3FGHIRWY/LB1 |
Departure
| Time | 2026-04-26 18:08 |
|---|---|
| Airport | Helsinki Vantaa Airport (EFHK) |
Arrival
| Time | 2026-04-26 19:35 |
|---|---|
| Airport | Copenhagen Kastrup Airport (EKCH) |
| Time | Latitude | Longitude | Altitude | Speed | Heading |
|---|---|---|---|---|---|
| 2026-04-26 17:46 | 60.31968 | 24.96742 | 161 ft | 0 kts | 176° |
| 2026-04-26 17:59 | 60.31983 | 24.96740 | 134 ft | 4 kts | 175° |
| 2026-04-26 18:00 | 60.32009 | 24.96736 | 161 ft | 2 kts | 178° |
| 2026-04-26 18:00 | 60.32031 | 24.96738 | 161 ft | 4 kts | 195° |
| 2026-04-26 18:00 | 60.32055 | 24.96761 | 161 ft | 4 kts | 222° |
| 2026-04-26 18:00 | 60.32073 | 24.96801 | 161 ft | 4 kts | 230° |
| 2026-04-26 18:01 | 60.32077 | 24.96810 | 161 ft | 0 kts | 228° |
| 2026-04-26 18:03 | 60.32076 | 24.96808 | 161 ft | 2 kts | 228° |
| 2026-04-26 18:03 | 60.32033 | 24.96715 | 161 ft | 15 kts | 227° |
| 2026-04-26 18:03 | 60.31959 | 24.96547 | 161 ft | 16 kts | 228° |
| 2026-04-26 18:03 | 60.31887 | 24.96385 | 161 ft | 11 kts | 228° |
| 2026-04-26 18:04 | 60.31856 | 24.96272 | 161 ft | 9 kts | 259° |
| 2026-04-26 18:04 | 60.31884 | 24.96110 | 161 ft | 15 kts | 313° |
| 2026-04-26 18:04 | 60.31922 | 24.95971 | 161 ft | 12 kts | 255° |
| 2026-04-26 18:05 | 60.31789 | 24.95652 | 161 ft | 22 kts | 227° |
| 2026-04-26 18:05 | 60.31674 | 24.95399 | 161 ft | 26 kts | 227° |
| 2026-04-26 18:05 | 60.31552 | 24.95128 | 161 ft | 27 kts | 227° |
| 2026-04-26 18:05 | 60.31438 | 24.94887 | 161 ft | 19 kts | 227° |
| 2026-04-26 18:06 | 60.31416 | 24.94696 | 161 ft | 13 kts | 302° |
| 2026-04-26 18:06 | 60.31483 | 24.94572 | 162 ft | 13 kts | 317° |
| 2026-04-26 18:06 | 60.31547 | 24.94557 | 161 ft | 10 kts | 44° |
| 2026-04-26 18:06 | 60.31591 | 24.94652 | 161 ft | 9 kts | 47° |
| 2026-04-26 18:07 | 60.31662 | 24.94808 | 163 ft | 36 kts | 47° |
| 2026-04-26 18:07 | 60.32002 | 24.95558 | 162 ft | 105 kts | 47° |
| 2026-04-26 18:07 | 60.32625 | 24.96921 | 209 ft | 153 kts | 41° |
| 2026-04-26 18:07 | 60.32865 | 24.97450 | 393 ft | 150 kts | 40° |
| 2026-04-26 18:08 | 60.34003 | 24.99963 | 1666 ft | 140 kts | 40° |
| 2026-04-26 18:08 | 60.34667 | 25.01422 | 2247 ft | 147 kts | 39° |
| 2026-04-26 18:08 | 60.35413 | 25.03042 | 2539 ft | 169 kts | 39° |
| 2026-04-26 18:08 | 60.36267 | 25.04899 | 2832 ft | 193 kts | 40° |
| 2026-04-26 18:09 | 60.37235 | 25.07017 | 3185 ft | 217 kts | 41° |
| 2026-04-26 18:09 | 60.38311 | 25.09379 | 3710 ft | 237 kts | 41° |
| 2026-04-26 18:09 | 60.39517 | 25.11684 | 4532 ft | 238 kts | 27° |
| 2026-04-26 18:09 | 60.41040 | 25.12796 | 5406 ft | 233 kts | 2° |
| 2026-04-26 18:10 | 60.42663 | 25.12916 | 6350 ft | 233 kts | 358° |
| 2026-04-26 18:10 | 60.44289 | 25.12971 | 7205 ft | 236 kts | 358° |
| 2026-04-26 18:10 | 60.45386 | 25.13005 | 7768 ft | 239 kts | 360° |
| 2026-04-26 18:10 | 60.47062 | 25.13055 | 8547 ft | 244 kts | 359° |
| 2026-04-26 18:11 | 60.48734 | 25.12385 | 9360 ft | 250 kts | 335° |
| 2026-04-26 18:11 | 60.50060 | 25.10063 | 10098 ft | 262 kts | 307° |
| 2026-04-26 18:11 | 60.50650 | 25.06487 | 10776 ft | 281 kts | 281° |
| 2026-04-26 18:11 | 60.50755 | 25.02342 | 11000 ft | 307 kts | 276° |
| 2026-04-26 18:12 | 60.50777 | 24.97879 | 11452 ft | 321 kts | 275° |
| 2026-04-26 18:12 | 60.50744 | 24.93327 | 12152 ft | 327 kts | 270° |
| 2026-04-26 18:12 | 60.50312 | 24.88721 | 12874 ft | 337 kts | 256° |
| 2026-04-26 18:12 | 60.49352 | 24.84316 | 13593 ft | 346 kts | 243° |
| 2026-04-26 18:13 | 60.47901 | 24.80346 | 14262 ft | 354 kts | 233° |
| 2026-04-26 18:13 | 60.46281 | 24.76552 | 14916 ft | 357 kts | 233° |
| 2026-04-26 18:13 | 60.44650 | 24.72728 | 15553 ft | 361 kts | 233° |
| 2026-04-26 18:13 | 60.43560 | 24.70174 | 15972 ft | 363 kts | 233° |
| 2026-04-26 18:14 | 60.41335 | 24.64967 | 16805 ft | 368 kts | 233° |
| 2026-04-26 18:14 | 60.39654 | 24.61039 | 17423 ft | 371 kts | 233° |
| 2026-04-26 18:14 | 60.37956 | 24.57081 | 18037 ft | 375 kts | 233° |
| 2026-04-26 18:14 | 60.36239 | 24.53086 | 18580 ft | 378 kts | 233° |
| 2026-04-26 18:15 | 60.34503 | 24.49062 | 19107 ft | 381 kts | 233° |
| 2026-04-26 18:15 | 60.32750 | 24.45017 | 19640 ft | 385 kts | 233° |
| 2026-04-26 18:15 | 60.30980 | 24.40940 | 20176 ft | 388 kts | 234° |
| 2026-04-26 18:15 | 60.29198 | 24.36828 | 20711 ft | 391 kts | 234° |
| 2026-04-26 18:16 | 60.27400 | 24.32682 | 21192 ft | 395 kts | 235° |
| 2026-04-26 18:16 | 60.23740 | 24.24275 | 22184 ft | 403 kts | 235° |
| 2026-04-26 18:16 | 60.21877 | 24.20022 | 22710 ft | 406 kts | 236° |
| 2026-04-26 18:17 | 60.20000 | 24.15740 | 23211 ft | 410 kts | 236° |
| 2026-04-26 18:17 | 60.18107 | 24.11428 | 23657 ft | 413 kts | 236° |
| 2026-04-26 18:17 | 60.16200 | 24.07087 | 24056 ft | 416 kts | 236° |
| 2026-04-26 18:17 | 60.14277 | 24.02720 | 24447 ft | 419 kts | 236° |
| 2026-04-26 18:18 | 60.12340 | 23.98332 | 24831 ft | 422 kts | 236° |
| 2026-04-26 18:18 | 60.10389 | 23.93919 | 25167 ft | 424 kts | 237° |
| 2026-04-26 18:18 | 60.08522 | 23.89353 | 25490 ft | 421 kts | 244° |
| 2026-04-26 18:18 | 60.07047 | 23.84361 | 25837 ft | 414 kts | 252° |
| 2026-04-26 18:19 | 60.05713 | 23.79229 | 26163 ft | 416 kts | 253° |
| 2026-04-26 18:19 | 60.04371 | 23.74082 | 26539 ft | 418 kts | 253° |
| 2026-04-26 18:19 | 60.03018 | 23.68912 | 26913 ft | 420 kts | 252° |
| 2026-04-26 18:19 | 60.01654 | 23.63725 | 27260 ft | 423 kts | 252° |
| 2026-04-26 18:20 | 60.00279 | 23.58516 | 27599 ft | 425 kts | 252° |
| 2026-04-26 18:20 | 59.98892 | 23.53276 | 27932 ft | 427 kts | 252° |
| 2026-04-26 18:20 | 59.97496 | 23.48021 | 28269 ft | 430 kts | 252° |
| 2026-04-26 18:20 | 59.96566 | 23.44530 | 28481 ft | 431 kts | 252° |
| 2026-04-26 18:21 | 59.94673 | 23.37433 | 28908 ft | 434 kts | 252° |
| 2026-04-26 18:21 | 59.93269 | 23.32181 | 29222 ft | 436 kts | 252° |
| 2026-04-26 18:21 | 59.91834 | 23.26820 | 29526 ft | 439 kts | 252° |
| 2026-04-26 18:21 | 59.90391 | 23.21446 | 29817 ft | 441 kts | 251° |
| 2026-04-26 18:22 | 59.88940 | 23.16051 | 30083 ft | 443 kts | 251° |
| 2026-04-26 18:22 | 59.87479 | 23.10635 | 30287 ft | 444 kts | 252° |
| 2026-04-26 18:22 | 59.86015 | 23.05219 | 30539 ft | 446 kts | 252° |
| 2026-04-26 18:22 | 59.84544 | 22.99790 | 30752 ft | 447 kts | 252° |
| 2026-04-26 18:23 | 59.83059 | 22.94320 | 30913 ft | 449 kts | 252° |
| 2026-04-26 18:23 | 59.81553 | 22.88792 | 31220 ft | 448 kts | 252° |
| 2026-04-26 18:23 | 59.80064 | 22.83357 | 31546 ft | 447 kts | 252° |
| 2026-04-26 18:23 | 59.78574 | 22.77931 | 31831 ft | 447 kts | 251° |
| 2026-04-26 18:24 | 59.77088 | 22.72512 | 32110 ft | 447 kts | 251° |
| 2026-04-26 18:24 | 59.75619 | 22.67163 | 32376 ft | 448 kts | 251° |
| 2026-04-26 18:24 | 59.74104 | 22.61662 | 32644 ft | 448 kts | 251° |
| 2026-04-26 18:24 | 59.72630 | 22.56314 | 32931 ft | 448 kts | 251° |
| 2026-04-26 18:25 | 59.71133 | 22.50894 | 33201 ft | 449 kts | 250° |
| 2026-04-26 18:25 | 59.69631 | 22.45471 | 33468 ft | 449 kts | 250° |
| 2026-04-26 18:25 | 59.68106 | 22.39977 | 33741 ft | 449 kts | 250° |
| 2026-04-26 18:25 | 59.66599 | 22.34563 | 34001 ft | 450 kts | 250° |
| 2026-04-26 18:26 | 59.65083 | 22.29144 | 34233 ft | 450 kts | 249° |
| 2026-04-26 18:26 | 59.63566 | 22.23742 | 34452 ft | 450 kts | 249° |
| 2026-04-26 18:26 | 59.62042 | 22.18324 | 34669 ft | 450 kts | 249° |
| 2026-04-26 18:26 | 59.60519 | 22.12921 | 34886 ft | 450 kts | 249° |
| 2026-04-26 18:27 | 59.58994 | 22.07518 | 35087 ft | 451 kts | 249° |
| 2026-04-26 18:27 | 59.57467 | 22.02117 | 35285 ft | 451 kts | 248° |
| 2026-04-26 18:27 | 59.55937 | 21.96720 | 35446 ft | 450 kts | 248° |
| 2026-04-26 18:27 | 59.54407 | 21.91341 | 35686 ft | 449 kts | 248° |
| 2026-04-26 18:28 | 59.52883 | 21.85999 | 35894 ft | 449 kts | 248° |
| 2026-04-26 18:28 | 59.51346 | 21.80614 | 35977 ft | 448 kts | 248° |
| 2026-04-26 18:28 | 59.48306 | 21.69984 | 36010 ft | 444 kts | 248° |
| 2026-04-26 18:29 | 59.45270 | 21.59439 | 36010 ft | 443 kts | 248° |
| 2026-04-26 18:29 | 59.42226 | 21.48912 | 36019 ft | 443 kts | 248° |
| 2026-04-26 18:30 | 59.39168 | 21.38377 | 36027 ft | 443 kts | 248° |
| 2026-04-26 18:30 | 59.36111 | 21.27880 | 36027 ft | 443 kts | 248° |
| 2026-04-26 18:31 | 59.33045 | 21.17400 | 36035 ft | 443 kts | 248° |
| 2026-04-26 18:31 | 59.29972 | 21.06937 | 36009 ft | 443 kts | 248° |
| 2026-04-26 18:32 | 59.26895 | 20.96523 | 36025 ft | 442 kts | 248° |
| 2026-04-26 18:32 | 59.23820 | 20.86164 | 36032 ft | 442 kts | 248° |
| 2026-04-26 18:33 | 59.20729 | 20.75794 | 36046 ft | 442 kts | 248° |
| 2026-04-26 18:33 | 59.17639 | 20.65424 | 36064 ft | 441 kts | 249° |
| 2026-04-26 18:34 | 59.14831 | 20.54890 | 36068 ft | 437 kts | 252° |
| 2026-04-26 18:34 | 59.12183 | 20.44257 | 36048 ft | 436 kts | 252° |
| 2026-04-26 18:35 | 59.09492 | 20.33672 | 36069 ft | 437 kts | 251° |
| 2026-04-26 18:35 | 59.06729 | 20.23147 | 36083 ft | 437 kts | 251° |
| 2026-04-26 18:36 | 59.03945 | 20.12653 | 36056 ft | 436 kts | 251° |
| 2026-04-26 18:36 | 59.01173 | 20.02205 | 36080 ft | 435 kts | 251° |
| 2026-04-26 18:37 | 58.98405 | 19.91775 | 36089 ft | 434 kts | 251° |
| 2026-04-26 18:37 | 58.95629 | 19.81380 | 36099 ft | 434 kts | 251° |
| 2026-04-26 18:38 | 58.92849 | 19.71005 | 36083 ft | 434 kts | 251° |
| 2026-04-26 18:38 | 58.90079 | 19.60722 | 36113 ft | 433 kts | 251° |
| 2026-04-26 18:39 | 58.87281 | 19.50413 | 36113 ft | 433 kts | 251° |
| 2026-04-26 18:39 | 58.84475 | 19.40111 | 36117 ft | 433 kts | 251° |
| 2026-04-26 18:40 | 58.81672 | 19.29851 | 36126 ft | 433 kts | 250° |
| 2026-04-26 18:40 | 58.78859 | 19.19584 | 36095 ft | 432 kts | 250° |
| 2026-04-26 18:41 | 58.76040 | 19.09349 | 36109 ft | 432 kts | 250° |
| 2026-04-26 18:41 | 58.73206 | 18.99147 | 36098 ft | 432 kts | 250° |
| 2026-04-26 18:42 | 58.70372 | 18.88971 | 36110 ft | 432 kts | 250° |
| 2026-04-26 18:42 | 58.67528 | 18.78785 | 36120 ft | 432 kts | 250° |
| 2026-04-26 18:43 | 58.64675 | 18.68633 | 36124 ft | 432 kts | 250° |
| 2026-04-26 18:43 | 58.61813 | 18.58484 | 36125 ft | 432 kts | 250° |
| 2026-04-26 18:44 | 58.58947 | 18.48366 | 36125 ft | 432 kts | 250° |
| 2026-04-26 18:44 | 58.56068 | 18.38268 | 36085 ft | 432 kts | 250° |
| 2026-04-26 18:45 | 58.53182 | 18.28169 | 36108 ft | 432 kts | 250° |
| 2026-04-26 18:45 | 58.50296 | 18.18096 | 36128 ft | 432 kts | 250° |
| 2026-04-26 18:46 | 58.47400 | 18.08031 | 36131 ft | 432 kts | 250° |
| 2026-04-26 18:46 | 58.44498 | 17.97999 | 36135 ft | 432 kts | 250° |
| 2026-04-26 18:47 | 58.41587 | 17.87981 | 36137 ft | 432 kts | 250° |
| 2026-04-26 18:47 | 58.38668 | 17.77971 | 36137 ft | 431 kts | 250° |
| 2026-04-26 18:48 | 58.35745 | 17.67993 | 36111 ft | 431 kts | 250° |
| 2026-04-26 18:48 | 58.32808 | 17.58044 | 36128 ft | 431 kts | 249° |
| 2026-04-26 18:49 | 58.29859 | 17.48088 | 36138 ft | 432 kts | 249° |
| 2026-04-26 18:49 | 58.26909 | 17.38155 | 36154 ft | 432 kts | 249° |
| 2026-04-26 18:50 | 58.23949 | 17.28237 | 36158 ft | 431 kts | 249° |
| 2026-04-26 18:50 | 58.20982 | 17.18353 | 36163 ft | 431 kts | 249° |
| 2026-04-26 18:51 | 58.18013 | 17.08481 | 36162 ft | 431 kts | 249° |
| 2026-04-26 18:51 | 58.15036 | 16.98616 | 36136 ft | 431 kts | 249° |
| 2026-04-26 18:52 | 58.12557 | 16.90446 | 36157 ft | 431 kts | 249° |
| 2026-04-26 18:52 | 58.09565 | 16.80644 | 36166 ft | 430 kts | 248° |
| 2026-04-26 18:53 | 58.06565 | 16.70854 | 36166 ft | 430 kts | 248° |
| 2026-04-26 18:53 | 58.03573 | 16.61094 | 36183 ft | 429 kts | 248° |
| 2026-04-26 18:54 | 58.00575 | 16.51356 | 36188 ft | 429 kts | 248° |
| 2026-04-26 18:54 | 57.97569 | 16.41624 | 36189 ft | 429 kts | 248° |
| 2026-04-26 18:55 | 57.94557 | 16.31931 | 36183 ft | 429 kts | 247° |
| 2026-04-26 18:55 | 57.91536 | 16.22261 | 36198 ft | 428 kts | 247° |
| 2026-04-26 18:56 | 57.88507 | 16.12633 | 36203 ft | 428 kts | 247° |
| 2026-04-26 18:56 | 57.85476 | 16.03026 | 36203 ft | 427 kts | 247° |
| 2026-04-26 18:57 | 57.83068 | 15.95407 | 36179 ft | 427 kts | 246° |
| 2026-04-26 18:57 | 57.79545 | 15.84278 | 36201 ft | 427 kts | 246° |
| 2026-04-26 18:58 | 57.76506 | 15.74735 | 36204 ft | 426 kts | 246° |
| 2026-04-26 18:58 | 57.73460 | 15.65208 | 36208 ft | 426 kts | 246° |
| 2026-04-26 18:59 | 57.70413 | 15.55724 | 36213 ft | 426 kts | 246° |
| 2026-04-26 18:59 | 57.67349 | 15.46235 | 36211 ft | 426 kts | 246° |
| 2026-04-26 19:00 | 57.64289 | 15.36771 | 36219 ft | 426 kts | 246° |
| 2026-04-26 19:00 | 57.61198 | 15.27261 | 36219 ft | 426 kts | 246° |
| 2026-04-26 19:01 | 57.58133 | 15.17885 | 36196 ft | 426 kts | 245° |
| 2026-04-26 19:01 | 57.55024 | 15.08409 | 36198 ft | 426 kts | 245° |
| 2026-04-26 19:02 | 57.51941 | 14.99012 | 36214 ft | 426 kts | 245° |
| 2026-04-26 19:02 | 57.49365 | 14.91218 | 36223 ft | 425 kts | 245° |
| 2026-04-26 19:03 | 57.45729 | 14.80284 | 36184 ft | 424 kts | 245° |
| 2026-04-26 19:03 | 57.44173 | 14.75614 | 35634 ft | 423 kts | 245° |
| 2026-04-26 19:03 | 57.42655 | 14.71050 | 35166 ft | 419 kts | 245° |
| 2026-04-26 19:04 | 57.41139 | 14.66501 | 34720 ft | 414 kts | 245° |
| 2026-04-26 19:04 | 57.39627 | 14.61976 | 34272 ft | 410 kts | 245° |
| 2026-04-26 19:04 | 57.38131 | 14.57514 | 33777 ft | 406 kts | 245° |
| 2026-04-26 19:04 | 57.36645 | 14.53098 | 33261 ft | 402 kts | 245° |
| 2026-04-26 19:05 | 57.33715 | 14.44393 | 32244 ft | 394 kts | 245° |
| 2026-04-26 19:05 | 57.32251 | 14.40048 | 31775 ft | 391 kts | 245° |
| 2026-04-26 19:05 | 57.30834 | 14.35855 | 31315 ft | 387 kts | 245° |
| 2026-04-26 19:06 | 57.29393 | 14.31596 | 30861 ft | 384 kts | 245° |
| 2026-04-26 19:06 | 57.27981 | 14.27434 | 30423 ft | 381 kts | 245° |
| 2026-04-26 19:06 | 57.26595 | 14.23363 | 29943 ft | 378 kts | 245° |
| 2026-04-26 19:06 | 57.25201 | 14.19275 | 29434 ft | 375 kts | 245° |
| 2026-04-26 19:07 | 57.23818 | 14.15218 | 28936 ft | 372 kts | 245° |
| 2026-04-26 19:07 | 57.22441 | 14.11194 | 28455 ft | 370 kts | 245° |
| 2026-04-26 19:07 | 57.21069 | 14.07194 | 27979 ft | 367 kts | 245° |
| 2026-04-26 19:07 | 57.19705 | 14.03233 | 27549 ft | 365 kts | 245° |
| 2026-04-26 19:08 | 57.18333 | 13.99245 | 27082 ft | 362 kts | 245° |
| 2026-04-26 19:08 | 57.16992 | 13.95334 | 26625 ft | 360 kts | 244° |
| 2026-04-26 19:08 | 57.15476 | 13.91631 | 26171 ft | 365 kts | 235° |
| 2026-04-26 19:08 | 57.13646 | 13.88422 | 25715 ft | 371 kts | 225° |
| 2026-04-26 19:09 | 57.11567 | 13.85507 | 25300 ft | 387 kts | 224° |
| 2026-04-26 19:09 | 57.09362 | 13.82419 | 24811 ft | 397 kts | 224° |
| 2026-04-26 19:09 | 57.07159 | 13.79347 | 24212 ft | 398 kts | 224° |
| 2026-04-26 19:09 | 57.04978 | 13.76322 | 23691 ft | 397 kts | 223° |
| 2026-04-26 19:10 | 57.02782 | 13.73282 | 23144 ft | 394 kts | 223° |
| 2026-04-26 19:10 | 57.00601 | 13.70265 | 22624 ft | 391 kts | 223° |
| 2026-04-26 19:10 | 56.98406 | 13.67229 | 22112 ft | 389 kts | 223° |
| 2026-04-26 19:10 | 56.96255 | 13.64259 | 21621 ft | 386 kts | 223° |
| 2026-04-26 19:11 | 56.94145 | 13.61347 | 21149 ft | 382 kts | 223° |
| 2026-04-26 19:11 | 56.92029 | 13.58435 | 20689 ft | 379 kts | 223° |
| 2026-04-26 19:11 | 56.89929 | 13.55547 | 20210 ft | 376 kts | 223° |
| 2026-04-26 19:11 | 56.87849 | 13.52683 | 19769 ft | 373 kts | 223° |
| 2026-04-26 19:12 | 56.85755 | 13.49801 | 19313 ft | 371 kts | 223° |
| 2026-04-26 19:12 | 56.83724 | 13.47014 | 18880 ft | 368 kts | 223° |
| 2026-04-26 19:12 | 56.81681 | 13.44215 | 18420 ft | 366 kts | 223° |
| 2026-04-26 19:12 | 56.79623 | 13.41396 | 17914 ft | 364 kts | 223° |
| 2026-04-26 19:13 | 56.77606 | 13.38634 | 17440 ft | 362 kts | 223° |
| 2026-04-26 19:13 | 56.75599 | 13.35894 | 16975 ft | 359 kts | 223° |
| 2026-04-26 19:13 | 56.73625 | 13.33206 | 16527 ft | 357 kts | 223° |
| 2026-04-26 19:13 | 56.71640 | 13.30508 | 16080 ft | 355 kts | 222° |
| 2026-04-26 19:14 | 56.69666 | 13.27824 | 15646 ft | 353 kts | 222° |
| 2026-04-26 19:14 | 56.67704 | 13.25157 | 15219 ft | 351 kts | 222° |
| 2026-04-26 19:14 | 56.65755 | 13.22505 | 14796 ft | 349 kts | 223° |
| 2026-04-26 19:14 | 56.64445 | 13.20719 | 14524 ft | 347 kts | 223° |
| 2026-04-26 19:15 | 56.61895 | 13.17249 | 13977 ft | 345 kts | 222° |
| 2026-04-26 19:15 | 56.59871 | 13.14808 | 13509 ft | 348 kts | 211° |
| 2026-04-26 19:15 | 56.57732 | 13.12976 | 13061 ft | 346 kts | 210° |
| 2026-04-26 19:15 | 56.55522 | 13.11100 | 12607 ft | 344 kts | 210° |
| 2026-04-26 19:16 | 56.53363 | 13.09272 | 12167 ft | 341 kts | 210° |
| 2026-04-26 19:16 | 56.51230 | 13.07469 | 11836 ft | 335 kts | 210° |
| 2026-04-26 19:16 | 56.49152 | 13.05722 | 11704 ft | 324 kts | 210° |
| 2026-04-26 19:16 | 56.47145 | 13.04040 | 11582 ft | 313 kts | 210° |
| 2026-04-26 19:17 | 56.45195 | 13.02412 | 11376 ft | 305 kts | 210° |
| 2026-04-26 19:17 | 56.43284 | 13.00810 | 11075 ft | 301 kts | 210° |
| 2026-04-26 19:17 | 56.41392 | 12.99215 | 10725 ft | 299 kts | 210° |
| 2026-04-26 19:17 | 56.39514 | 12.97633 | 10406 ft | 297 kts | 210° |
| 2026-04-26 19:18 | 56.37638 | 12.96058 | 10261 ft | 296 kts | 210° |
| 2026-04-26 19:18 | 56.35734 | 12.94453 | 10275 ft | 317 kts | 210° |
| 2026-04-26 19:18 | 56.33648 | 12.92678 | 10270 ft | 336 kts | 209° |
| 2026-04-26 19:18 | 56.31556 | 12.90925 | 9933 ft | 329 kts | 209° |
| 2026-04-26 19:19 | 56.29489 | 12.89212 | 9474 ft | 326 kts | 209° |
| 2026-04-26 19:19 | 56.27441 | 12.87521 | 9025 ft | 322 kts | 209° |
| 2026-04-26 19:19 | 56.25410 | 12.85843 | 8579 ft | 319 kts | 208° |
| 2026-04-26 19:19 | 56.23401 | 12.84186 | 8139 ft | 316 kts | 209° |
| 2026-04-26 19:20 | 56.21411 | 12.82533 | 7706 ft | 313 kts | 209° |
| 2026-04-26 19:20 | 56.20115 | 12.81455 | 7423 ft | 311 kts | 209° |
| 2026-04-26 19:20 | 56.17500 | 12.79283 | 7256 ft | 309 kts | 209° |
| 2026-04-26 19:20 | 56.15550 | 12.77666 | 7273 ft | 309 kts | 209° |
| 2026-04-26 19:21 | 56.13598 | 12.76051 | 7277 ft | 309 kts | 209° |
| 2026-04-26 19:21 | 56.11640 | 12.74438 | 7275 ft | 309 kts | 208° |
| 2026-04-26 19:21 | 56.09685 | 12.72830 | 7277 ft | 309 kts | 209° |
| 2026-04-26 19:21 | 56.07732 | 12.71221 | 7278 ft | 309 kts | 209° |
| 2026-04-26 19:22 | 56.05779 | 12.69615 | 7275 ft | 309 kts | 209° |
| 2026-04-26 19:22 | 56.03829 | 12.68012 | 7172 ft | 307 kts | 208° |
| 2026-04-26 19:22 | 56.01898 | 12.66427 | 6691 ft | 304 kts | 208° |
| 2026-04-26 19:22 | 55.99980 | 12.64852 | 6212 ft | 301 kts | 208° |
| 2026-04-26 19:23 | 55.98089 | 12.63304 | 5739 ft | 298 kts | 208° |
| 2026-04-26 19:23 | 55.96210 | 12.61768 | 5263 ft | 295 kts | 208° |
| 2026-04-26 19:23 | 55.94355 | 12.60250 | 5012 ft | 293 kts | 208° |
| 2026-04-26 19:23 | 55.92505 | 12.58737 | 5001 ft | 293 kts | 208° |
| 2026-04-26 19:24 | 55.90647 | 12.57218 | 5012 ft | 294 kts | 208° |
| 2026-04-26 19:24 | 55.88786 | 12.55698 | 5013 ft | 294 kts | 208° |
| 2026-04-26 19:24 | 55.85054 | 12.52662 | 5013 ft | 294 kts | 208° |
| 2026-04-26 19:25 | 55.83190 | 12.51148 | 5013 ft | 294 kts | 208° |
| 2026-04-26 19:25 | 55.82561 | 12.50638 | 5012 ft | 294 kts | 208° |
| 2026-04-26 19:25 | 55.79464 | 12.48132 | 5012 ft | 294 kts | 208° |
| 2026-04-26 19:25 | 55.77603 | 12.46626 | 5011 ft | 295 kts | 208° |
| 2026-04-26 19:26 | 55.75744 | 12.45109 | 4799 ft | 291 kts | 208° |
| 2026-04-26 19:26 | 55.73914 | 12.43593 | 4278 ft | 289 kts | 208° |
| 2026-04-26 19:26 | 55.72103 | 12.42071 | 3725 ft | 288 kts | 208° |
| 2026-04-26 19:26 | 55.70318 | 12.40566 | 3488 ft | 277 kts | 208° |
| 2026-04-26 19:27 | 55.68622 | 12.39143 | 3340 ft | 263 kts | 208° |
| 2026-04-26 19:27 | 55.67000 | 12.37791 | 3093 ft | 254 kts | 208° |
| 2026-04-26 19:27 | 55.65342 | 12.36752 | 3002 ft | 256 kts | 191° |
| 2026-04-26 19:27 | 55.63552 | 12.36501 | 3010 ft | 259 kts | 186° |
| 2026-04-26 19:28 | 55.61750 | 12.36375 | 3010 ft | 259 kts | 185° |
| 2026-04-26 19:28 | 55.59955 | 12.36265 | 2772 ft | 255 kts | 185° |
| 2026-04-26 19:28 | 55.58259 | 12.36175 | 2627 ft | 233 kts | 185° |
| 2026-04-26 19:28 | 55.56711 | 12.36093 | 2495 ft | 214 kts | 185° |
| 2026-04-26 19:29 | 55.55248 | 12.36014 | 2360 ft | 206 kts | 185° |
| 2026-04-26 19:29 | 55.53825 | 12.35944 | 2126 ft | 204 kts | 185° |
| 2026-04-26 19:29 | 55.52412 | 12.35877 | 2013 ft | 203 kts | 185° |
| 2026-04-26 19:29 | 55.51008 | 12.35805 | 2009 ft | 202 kts | 185° |
| 2026-04-26 19:30 | 55.49605 | 12.35899 | 2003 ft | 205 kts | 167° |
| 2026-04-26 19:30 | 55.48414 | 12.37240 | 2002 ft | 203 kts | 129° |
| 2026-04-26 19:30 | 55.47917 | 12.39504 | 2047 ft | 198 kts | 97° |
| 2026-04-26 19:30 | 55.47891 | 12.40321 | 2026 ft | 198 kts | 89° |
| 2026-04-26 19:31 | 55.48646 | 12.43985 | 1998 ft | 193 kts | 47° |
| 2026-04-26 19:31 | 55.49291 | 12.45090 | 2002 ft | 191 kts | 38° |
| 2026-04-26 19:31 | 55.50293 | 12.46621 | 2004 ft | 191 kts | 38° |
| 2026-04-26 19:31 | 55.51622 | 12.48658 | 1956 ft | 190 kts | 38° |
| 2026-04-26 19:32 | 55.52279 | 12.49668 | 1845 ft | 182 kts | 38° |
| 2026-04-26 19:32 | 55.53197 | 12.51080 | 1625 ft | 169 kts | 38° |
| 2026-04-26 19:32 | 55.54055 | 12.52399 | 1408 ft | 158 kts | 38° |
| 2026-04-26 19:32 | 55.54869 | 12.53651 | 1227 ft | 153 kts | 38° |
| 2026-04-26 19:33 | 55.55667 | 12.54876 | 1016 ft | 151 kts | 38° |
| 2026-04-26 19:33 | 55.56447 | 12.56083 | 800 ft | 148 kts | 39° |
| 2026-04-26 19:33 | 55.57217 | 12.57259 | 590 ft | 146 kts | 40° |
| 2026-04-26 19:33 | 55.57975 | 12.58426 | 396 ft | 143 kts | 41° |
| 2026-04-26 19:34 | 55.58718 | 12.59565 | 209 ft | 140 kts | 41° |
| 2026-04-26 19:34 | 55.59437 | 12.60681 | 36 ft | 136 kts | 40° |
| 2026-04-26 19:34 | 55.60058 | 12.61642 | 27 ft | 94 kts | 41° |
| 2026-04-26 19:34 | 55.60434 | 12.62226 | 26 ft | 60 kts | 41° |
| 2026-04-26 19:35 | 55.60719 | 12.62668 | 26 ft | 51 kts | 41° |
| 2026-04-26 19:35 | 55.60964 | 12.63049 | 24 ft | 41 kts | 41° |
| 2026-04-26 19:35 | 55.61121 | 12.63283 | 27 ft | 22 kts | 36° |
| 2026-04-26 19:35 | 55.61237 | 12.63324 | 30 ft | 17 kts | 355° |
| 2026-04-26 19:36 | 55.61355 | 12.63313 | 24 ft | 17 kts | 3° |
| 2026-04-26 19:36 | 55.61421 | 12.63372 | 24 ft | 16 kts | 39° |
| 2026-04-26 19:36 | 55.61528 | 12.63538 | 24 ft | 15 kts | 41° |
| 2026-04-26 19:36 | 55.61606 | 12.63658 | 24 ft | 14 kts | 40° |
| 2026-04-26 19:37 | 55.61686 | 12.63782 | 24 ft | 18 kts | 41° |
| 2026-04-26 19:37 | 55.61793 | 12.63948 | 24 ft | 23 kts | 41° |
| 2026-04-26 19:37 | 55.61911 | 12.64101 | 24 ft | 19 kts | 26° |
| 2026-04-26 19:37 | 55.62032 | 12.64203 | 26 ft | 20 kts | 26° |
| 2026-04-26 19:38 | 55.62159 | 12.64309 | 23 ft | 21 kts | 25° |
| 2026-04-26 19:38 | 55.62304 | 12.64406 | 23 ft | 20 kts | 14° |
| 2026-04-26 19:38 | 55.62420 | 12.64462 | 24 ft | 17 kts | 15° |
| 2026-04-26 19:38 | 55.62501 | 12.64467 | 25 ft | 10 kts | 327° |
| 2026-04-26 19:39 | 55.62538 | 12.64373 | 25 ft | 9 kts | 303° |
| 2026-04-26 19:39 | 55.62578 | 12.64261 | 24 ft | 15 kts | 303° |
| 2026-04-26 19:39 | 55.62628 | 12.64126 | 25 ft | 9 kts | 303° |
| 2026-04-26 19:39 | 55.62656 | 12.64116 | 24 ft | 4 kts | 18° |
| 2026-04-26 19:40 | 55.62678 | 12.64139 | 24 ft | 3 kts | 32° |
| 2026-04-26 19:40 | 55.62695 | 12.64158 | 26 ft | 3 kts | 34° |
| 2026-04-26 19:40 | 55.62703 | 12.64168 | 25 ft | 0 kts | 33° |